sensor_id;sensor_type;location;lat;lon;timestamp;P1;durP1;ratioP1;P2;durP2;ratioP2
7531;SDS011;3807;49.030;8.714;2023-07-30T00:01:14;2.72;;;0.90;;
7531;SDS011;3807;49.030;8.714;2023-07-30T00:03:40;0.80;;;0.60;;
7531;SDS011;3807;49.030;8.714;2023-07-30T00:06:05;0.85;;;0.75;;
7531;SDS011;3807;49.030;8.714;2023-07-30T00:08:31;3.45;;;0.70;;
7531;SDS011;3807;49.030;8.714;2023-07-30T00:10:56;0.50;;;0.50;;
7531;SDS011;3807;49.030;8.714;2023-07-30T00:13:22;0.65;;;0.57;;
7531;SDS011;3807;49.030;8.714;2023-07-30T00:15:48;1.60;;;0.70;;
7531;SDS011;3807;49.030;8.714;2023-07-30T00:18:14;1.35;;;0.70;;
7531;SDS011;3807;49.030;8.714;2023-07-30T00:20:40;0.80;;;0.65;;
7531;SDS011;3807;49.030;8.714;2023-07-30T00:23:06;2.60;;;0.70;;
7531;SDS011;3807;49.030;8.714;2023-07-30T00:25:31;1.67;;;1.00;;
7531;SDS011;3807;49.030;8.714;2023-07-30T00:27:57;2.00;;;0.80;;
7531;SDS011;3807;49.030;8.714;2023-07-30T00:30:22;0.82;;;0.62;;
7531;SDS011;3807;49.030;8.714;2023-07-30T00:32:48;0.65;;;0.52;;
7531;SDS011;3807;49.030;8.714;2023-07-30T00:35:13;0.50;;;0.50;;
7531;SDS011;3807;49.030;8.714;2023-07-30T00:37:38;0.60;;;0.50;;
7531;SDS011;3807;49.030;8.714;2023-07-30T00:40:04;0.77;;;0.60;;
7531;SDS011;3807;49.030;8.714;2023-07-30T00:42:30;0.50;;;0.50;;
7531;SDS011;3807;49.030;8.714;2023-07-30T00:44:55;1.10;;;0.68;;
7531;SDS011;3807;49.030;8.714;2023-07-30T00:47:21;8.02;;;0.80;;
7531;SDS011;3807;49.030;8.714;2023-07-30T00:49:47;2.50;;;0.80;;
7531;SDS011;3807;49.030;8.714;2023-07-30T00:52:14;1.83;;;0.82;;
7531;SDS011;3807;49.030;8.714;2023-07-30T00:54:41;0.50;;;0.50;;
7531;SDS011;3807;49.030;8.714;2023-07-30T00:57:06;2.40;;;0.62;;
7531;SDS011;3807;49.030;8.714;2023-07-30T00:59:32;0.55;;;0.55;;
7531;SDS011;3807;49.030;8.714;2023-07-30T01:01:58;1.02;;;0.60;;
7531;SDS011;3807;49.030;8.714;2023-07-30T01:04:24;0.93;;;0.60;;
7531;SDS011;3807;49.030;8.714;2023-07-30T01:06:50;2.40;;;0.93;;
7531;SDS011;3807;49.030;8.714;2023-07-30T01:09:15;0.95;;;0.65;;
7531;SDS011;3807;49.030;8.714;2023-07-30T01:11:41;0.93;;;0.75;;
7531;SDS011;3807;49.030;8.714;2023-07-30T01:14:07;0.68;;;0.60;;
7531;SDS011;3807;49.030;8.714;2023-07-30T01:16:34;0.60;;;0.60;;
7531;SDS011;3807;49.030;8.714;2023-07-30T01:18:59;2.10;;;0.77;;
7531;SDS011;3807;49.030;8.714;2023-07-30T01:21:29;1.23;;;0.70;;
7531;SDS011;3807;49.030;8.714;2023-07-30T01:23:56;1.33;;;0.85;;
7531;SDS011;3807;49.030;8.714;2023-07-30T01:26:22;1.92;;;0.73;;
7531;SDS011;3807;49.030;8.714;2023-07-30T01:28:54;0.60;;;0.60;;
7531;SDS011;3807;49.030;8.714;2023-07-30T01:31:24;6.57;;;0.93;;
7531;SDS011;3807;49.030;8.714;2023-07-30T01:33:52;1.77;;;0.70;;
7531;SDS011;3807;49.030;8.714;2023-07-30T01:36:19;0.85;;;0.77;;
7531;SDS011;3807;49.030;8.714;2023-07-30T01:38:45;0.98;;;0.88;;
7531;SDS011;3807;49.030;8.714;2023-07-30T01:41:12;2.17;;;0.93;;
7531;SDS011;3807;49.030;8.714;2023-07-30T01:43:38;1.80;;;1.50;;
7531;SDS011;3807;49.030;8.714;2023-07-30T01:46:03;3.12;;;1.00;;
7531;SDS011;3807;49.030;8.714;2023-07-30T01:48:29;1.85;;;1.10;;
7531;SDS011;3807;49.030;8.714;2023-07-30T01:50:54;1.37;;;0.88;;
7531;SDS011;3807;49.030;8.714;2023-07-30T01:53:19;1.00;;;0.80;;
7531;SDS011;3807;49.030;8.714;2023-07-30T01:55:45;1.50;;;0.95;;
7531;SDS011;3807;49.030;8.714;2023-07-30T01:58:11;1.98;;;1.30;;
7531;SDS011;3807;49.030;8.714;2023-07-30T02:00:38;1.10;;;1.00;;
7531;SDS011;3807;49.030;8.714;2023-07-30T02:03:03;1.30;;;0.90;;
7531;SDS011;3807;49.030;8.714;2023-07-30T02:05:29;1.55;;;1.10;;
7531;SDS011;3807;49.030;8.714;2023-07-30T02:07:54;1.35;;;1.25;;
7531;SDS011;3807;49.030;8.714;2023-07-30T02:10:20;1.87;;;1.40;;
7531;SDS011;3807;49.030;8.714;2023-07-30T02:12:45;1.42;;;1.10;;
7531;SDS011;3807;49.030;8.714;2023-07-30T02:15:10;3.05;;;1.50;;
7531;SDS011;3807;49.030;8.714;2023-07-30T02:17:36;1.65;;;1.40;;
7531;SDS011;3807;49.030;8.714;2023-07-30T02:20:01;5.47;;;1.30;;
7531;SDS011;3807;49.030;8.714;2023-07-30T02:22:27;3.53;;;1.35;;
7531;SDS011;3807;49.030;8.714;2023-07-30T02:24:53;1.80;;;1.37;;
7531;SDS011;3807;49.030;8.714;2023-07-30T02:27:18;1.30;;;1.10;;
7531;SDS011;3807;49.030;8.714;2023-07-30T02:29:44;2.97;;;1.20;;
7531;SDS011;3807;49.030;8.714;2023-07-30T02:32:09;3.67;;;1.50;;
7531;SDS011;3807;49.030;8.714;2023-07-30T02:34:34;2.50;;;1.40;;
7531;SDS011;3807;49.030;8.714;2023-07-30T02:37:00;1.70;;;1.42;;
7531;SDS011;3807;49.030;8.714;2023-07-30T02:39:25;4.05;;;1.70;;
7531;SDS011;3807;49.030;8.714;2023-07-30T02:41:50;2.50;;;1.60;;
7531;SDS011;3807;49.030;8.714;2023-07-30T02:44:15;1.75;;;1.40;;
7531;SDS011;3807;49.030;8.714;2023-07-30T02:46:41;3.50;;;1.60;;
7531;SDS011;3807;49.030;8.714;2023-07-30T02:49:06;2.40;;;1.20;;
7531;SDS011;3807;49.030;8.714;2023-07-30T02:51:32;3.55;;;1.50;;
7531;SDS011;3807;49.030;8.714;2023-07-30T02:53:57;1.77;;;1.55;;
7531;SDS011;3807;49.030;8.714;2023-07-30T02:56:24;1.90;;;1.70;;
7531;SDS011;3807;49.030;8.714;2023-07-30T02:58:50;2.65;;;1.67;;
7531;SDS011;3807;49.030;8.714;2023-07-30T03:01:15;1.45;;;1.33;;
7531;SDS011;3807;49.030;8.714;2023-07-30T03:03:41;1.80;;;1.42;;
7531;SDS011;3807;49.030;8.714;2023-07-30T03:06:06;1.65;;;1.40;;
7531;SDS011;3807;49.030;8.714;2023-07-30T03:08:32;2.00;;;1.67;;
7531;SDS011;3807;49.030;8.714;2023-07-30T03:10:58;3.58;;;1.73;;
7531;SDS011;3807;49.030;8.714;2023-07-30T03:13:24;1.42;;;1.33;;
7531;SDS011;3807;49.030;8.714;2023-07-30T03:15:49;1.33;;;1.23;;
7531;SDS011;3807;49.030;8.714;2023-07-30T03:18:15;2.58;;;1.40;;
7531;SDS011;3807;49.030;8.714;2023-07-30T03:20:40;1.62;;;1.40;;
7531;SDS011;3807;49.030;8.714;2023-07-30T03:23:05;2.50;;;1.50;;
7531;SDS011;3807;49.030;8.714;2023-07-30T03:25:31;2.70;;;1.95;;
7531;SDS011;3807;49.030;8.714;2023-07-30T03:27:56;1.40;;;1.30;;
7531;SDS011;3807;49.030;8.714;2023-07-30T03:30:21;2.20;;;1.75;;
7531;SDS011;3807;49.030;8.714;2023-07-30T03:32:47;2.72;;;1.87;;
7531;SDS011;3807;49.030;8.714;2023-07-30T03:35:12;2.62;;;1.50;;
7531;SDS011;3807;49.030;8.714;2023-07-30T03:37:38;2.35;;;2.10;;
7531;SDS011;3807;49.030;8.714;2023-07-30T03:40:04;1.73;;;1.30;;
7531;SDS011;3807;49.030;8.714;2023-07-30T03:42:29;1.75;;;1.48;;
7531;SDS011;3807;49.030;8.714;2023-07-30T03:44:55;1.55;;;1.45;;
7531;SDS011;3807;49.030;8.714;2023-07-30T03:47:20;2.78;;;1.90;;
7531;SDS011;3807;49.030;8.714;2023-07-30T03:49:45;2.10;;;1.90;;
7531;SDS011;3807;49.030;8.714;2023-07-30T03:52:11;2.30;;;1.77;;
7531;SDS011;3807;49.030;8.714;2023-07-30T03:54:36;2.95;;;1.77;;
7531;SDS011;3807;49.030;8.714;2023-07-30T03:57:01;2.15;;;1.65;;
7531;SDS011;3807;49.030;8.714;2023-07-30T03:59:27;4.05;;;1.98;;
7531;SDS011;3807;49.030;8.714;2023-07-30T04:01:53;3.37;;;2.17;;
7531;SDS011;3807;49.030;8.714;2023-07-30T04:04:18;3.03;;;2.08;;
7531;SDS011;3807;49.030;8.714;2023-07-30T04:06:44;1.85;;;1.65;;
7531;SDS011;3807;49.030;8.714;2023-07-30T04:09:09;2.53;;;1.73;;
7531;SDS011;3807;49.030;8.714;2023-07-30T04:11:34;4.95;;;1.55;;
7531;SDS011;3807;49.030;8.714;2023-07-30T04:14:00;2.00;;;1.80;;
7531;SDS011;3807;49.030;8.714;2023-07-30T04:16:25;1.95;;;1.65;;
7531;SDS011;3807;49.030;8.714;2023-07-30T04:18:50;2.05;;;1.83;;
7531;SDS011;3807;49.030;8.714;2023-07-30T04:21:16;3.08;;;1.60;;
7531;SDS011;3807;49.030;8.714;2023-07-30T04:23:41;2.08;;;1.77;;
7531;SDS011;3807;49.030;8.714;2023-07-30T04:26:06;2.45;;;1.80;;
7531;SDS011;3807;49.030;8.714;2023-07-30T04:28:32;1.70;;;1.60;;
7531;SDS011;3807;49.030;8.714;2023-07-30T04:30:58;1.90;;;1.70;;
7531;SDS011;3807;49.030;8.714;2023-07-30T04:33:23;1.52;;;1.42;;
7531;SDS011;3807;49.030;8.714;2023-07-30T04:35:49;2.65;;;1.67;;
7531;SDS011;3807;49.030;8.714;2023-07-30T04:38:14;4.30;;;1.30;;
7531;SDS011;3807;49.030;8.714;2023-07-30T04:40:39;2.00;;;1.62;;
7531;SDS011;3807;49.030;8.714;2023-07-30T04:43:05;1.52;;;1.33;;
7531;SDS011;3807;49.030;8.714;2023-07-30T04:45:30;2.78;;;1.48;;
7531;SDS011;3807;49.030;8.714;2023-07-30T04:47:56;4.15;;;1.60;;
7531;SDS011;3807;49.030;8.714;2023-07-30T04:50:21;5.53;;;1.80;;
7531;SDS011;3807;49.030;8.714;2023-07-30T04:52:47;6.07;;;1.70;;
7531;SDS011;3807;49.030;8.714;2023-07-30T04:55:12;2.25;;;1.60;;
7531;SDS011;3807;49.030;8.714;2023-07-30T04:57:37;2.15;;;1.70;;
7531;SDS011;3807;49.030;8.714;2023-07-30T05:00:03;1.33;;;1.23;;
7531;SDS011;3807;49.030;8.714;2023-07-30T05:02:29;2.47;;;2.10;;
7531;SDS011;3807;49.030;8.714;2023-07-30T05:04:54;2.83;;;2.15;;
7531;SDS011;3807;49.030;8.714;2023-07-30T05:07:20;2.67;;;2.00;;
7531;SDS011;3807;49.030;8.714;2023-07-30T05:09:45;3.45;;;2.60;;
7531;SDS011;3807;49.030;8.714;2023-07-30T05:12:10;2.97;;;1.80;;
7531;SDS011;3807;49.030;8.714;2023-07-30T05:14:36;2.77;;;2.37;;
7531;SDS011;3807;49.030;8.714;2023-07-30T05:17:01;3.20;;;1.80;;
7531;SDS011;3807;49.030;8.714;2023-07-30T05:19:27;2.95;;;1.67;;
7531;SDS011;3807;49.030;8.714;2023-07-30T05:21:53;1.83;;;1.30;;
7531;SDS011;3807;49.030;8.714;2023-07-30T05:24:18;2.45;;;1.10;;
7531;SDS011;3807;49.030;8.714;2023-07-30T05:26:44;2.55;;;1.12;;
7531;SDS011;3807;49.030;8.714;2023-07-30T05:29:09;2.53;;;1.20;;
7531;SDS011;3807;49.030;8.714;2023-07-30T05:31:35;3.13;;;1.17;;
7531;SDS011;3807;49.030;8.714;2023-07-30T05:34:00;1.90;;;1.30;;
7531;SDS011;3807;49.030;8.714;2023-07-30T05:36:26;1.40;;;1.10;;
7531;SDS011;3807;49.030;8.714;2023-07-30T05:38:51;1.37;;;1.07;;
7531;SDS011;3807;49.030;8.714;2023-07-30T05:41:16;1.40;;;1.13;;
7531;SDS011;3807;49.030;8.714;2023-07-30T05:43:42;1.50;;;1.20;;
7531;SDS011;3807;49.030;8.714;2023-07-30T05:46:07;1.30;;;1.00;;
7531;SDS011;3807;49.030;8.714;2023-07-30T05:48:33;1.20;;;1.10;;
7531;SDS011;3807;49.030;8.714;2023-07-30T05:50:58;1.17;;;1.00;;
7531;SDS011;3807;49.030;8.714;2023-07-30T05:53:24;1.40;;;1.20;;
7531;SDS011;3807;49.030;8.714;2023-07-30T05:55:49;1.60;;;1.15;;
7531;SDS011;3807;49.030;8.714;2023-07-30T05:58:15;1.30;;;1.20;;
7531;SDS011;3807;49.030;8.714;2023-07-30T06:00:41;3.25;;;1.37;;
7531;SDS011;3807;49.030;8.714;2023-07-30T06:03:06;1.40;;;1.30;;
7531;SDS011;3807;49.030;8.714;2023-07-30T06:05:38;2.03;;;1.40;;
7531;SDS011;3807;49.030;8.714;2023-07-30T06:08:04;1.43;;;1.27;;
7531;SDS011;3807;49.030;8.714;2023-07-30T06:10:29;1.58;;;1.37;;
7531;SDS011;3807;49.030;8.714;2023-07-30T06:12:54;3.20;;;1.57;;
7531;SDS011;3807;49.030;8.714;2023-07-30T06:15:20;1.40;;;1.20;;
7531;SDS011;3807;49.030;8.714;2023-07-30T06:17:45;1.67;;;1.37;;
7531;SDS011;3807;49.030;8.714;2023-07-30T06:20:10;2.37;;;1.43;;
7531;SDS011;3807;49.030;8.714;2023-07-30T06:22:36;3.13;;;1.77;;
7531;SDS011;3807;49.030;8.714;2023-07-30T06:25:02;2.23;;;1.60;;
7531;SDS011;3807;49.030;8.714;2023-07-30T06:27:27;2.30;;;1.83;;
7531;SDS011;3807;49.030;8.714;2023-07-30T06:29:52;3.43;;;1.70;;
7531;SDS011;3807;49.030;8.714;2023-07-30T06:32:18;1.80;;;1.60;;
7531;SDS011;3807;49.030;8.714;2023-07-30T06:34:43;2.00;;;1.80;;
7531;SDS011;3807;49.030;8.714;2023-07-30T06:37:09;1.90;;;1.60;;
7531;SDS011;3807;49.030;8.714;2023-07-30T06:39:34;2.22;;;1.75;;
7531;SDS011;3807;49.030;8.714;2023-07-30T06:41:59;3.77;;;1.83;;
7531;SDS011;3807;49.030;8.714;2023-07-30T06:44:25;3.37;;;1.92;;
7531;SDS011;3807;49.030;8.714;2023-07-30T06:46:50;4.90;;;1.70;;
7531;SDS011;3807;49.030;8.714;2023-07-30T06:49:16;4.67;;;1.67;;
7531;SDS011;3807;49.030;8.714;2023-07-30T06:51:41;2.80;;;1.73;;
7531;SDS011;3807;49.030;8.714;2023-07-30T06:54:06;3.17;;;1.58;;
7531;SDS011;3807;49.030;8.714;2023-07-30T06:56:32;1.97;;;1.43;;
7531;SDS011;3807;49.030;8.714;2023-07-30T06:58:57;1.90;;;1.30;;
7531;SDS011;3807;49.030;8.714;2023-07-30T07:01:22;1.53;;;0.93;;
7531;SDS011;3807;49.030;8.714;2023-07-30T07:03:48;2.83;;;1.83;;
7531;SDS011;3807;49.030;8.714;2023-07-30T07:06:13;0.93;;;0.83;;
7531;SDS011;3807;49.030;8.714;2023-07-30T07:08:39;2.47;;;1.90;;
7531;SDS011;3807;49.030;8.714;2023-07-30T07:11:04;2.50;;;1.43;;
7531;SDS011;3807;49.030;8.714;2023-07-30T07:13:29;1.30;;;1.20;;
7531;SDS011;3807;49.030;8.714;2023-07-30T07:15:55;1.40;;;1.23;;
7531;SDS011;3807;49.030;8.714;2023-07-30T07:18:20;2.50;;;1.00;;
7531;SDS011;3807;49.030;8.714;2023-07-30T07:20:45;4.17;;;1.17;;
7531;SDS011;3807;49.030;8.714;2023-07-30T07:23:10;2.03;;;1.30;;
7531;SDS011;3807;49.030;8.714;2023-07-30T07:25:36;3.03;;;1.57;;
7531;SDS011;3807;49.030;8.714;2023-07-30T07:28:02;3.20;;;1.30;;
7531;SDS011;3807;49.030;8.714;2023-07-30T07:30:28;1.30;;;1.20;;
7531;SDS011;3807;49.030;8.714;2023-07-30T07:32:53;1.70;;;1.60;;
7531;SDS011;3807;49.030;8.714;2023-07-30T07:35:20;1.87;;;1.60;;
7531;SDS011;3807;49.030;8.714;2023-07-30T07:37:46;1.83;;;1.43;;
7531;SDS011;3807;49.030;8.714;2023-07-30T07:40:11;2.10;;;1.60;;
7531;SDS011;3807;49.030;8.714;2023-07-30T07:42:37;2.78;;;1.70;;
7531;SDS011;3807;49.030;8.714;2023-07-30T07:45:04;2.47;;;1.80;;
7531;SDS011;3807;49.030;8.714;2023-07-30T07:47:30;2.42;;;1.85;;
7531;SDS011;3807;49.030;8.714;2023-07-30T07:49:55;4.07;;;1.90;;
7531;SDS011;3807;49.030;8.714;2023-07-30T07:52:21;2.00;;;1.60;;
7531;SDS011;3807;49.030;8.714;2023-07-30T07:54:46;2.30;;;2.00;;
7531;SDS011;3807;49.030;8.714;2023-07-30T07:57:12;3.47;;;1.97;;
7531;SDS011;3807;49.030;8.714;2023-07-30T07:59:37;4.33;;;1.97;;
7531;SDS011;3807;49.030;8.714;2023-07-30T08:02:03;3.47;;;2.17;;
7531;SDS011;3807;49.030;8.714;2023-07-30T08:04:29;4.30;;;2.00;;
7531;SDS011;3807;49.030;8.714;2023-07-30T08:06:54;2.33;;;1.97;;
7531;SDS011;3807;49.030;8.714;2023-07-30T08:09:19;3.47;;;2.17;;
7531;SDS011;3807;49.030;8.714;2023-07-30T08:11:45;4.10;;;2.70;;
7531;SDS011;3807;49.030;8.714;2023-07-30T08:14:10;6.10;;;2.70;;
7531;SDS011;3807;49.030;8.714;2023-07-30T08:16:36;2.20;;;1.70;;
7531;SDS011;3807;49.030;8.714;2023-07-30T08:19:01;3.50;;;2.10;;
7531;SDS011;3807;49.030;8.714;2023-07-30T08:21:26;2.70;;;2.20;;
7531;SDS011;3807;49.030;8.714;2023-07-30T08:23:52;2.95;;;2.30;;
7531;SDS011;3807;49.030;8.714;2023-07-30T08:26:17;6.40;;;2.28;;
7531;SDS011;3807;49.030;8.714;2023-07-30T08:28:42;2.97;;;2.27;;
7531;SDS011;3807;49.030;8.714;2023-07-30T08:31:08;2.00;;;1.70;;
7531;SDS011;3807;49.030;8.714;2023-07-30T08:33:33;3.30;;;2.20;;
7531;SDS011;3807;49.030;8.714;2023-07-30T08:35:58;3.47;;;2.20;;
7531;SDS011;3807;49.030;8.714;2023-07-30T08:38:24;4.17;;;2.00;;
7531;SDS011;3807;49.030;8.714;2023-07-30T08:40:50;2.33;;;1.97;;
7531;SDS011;3807;49.030;8.714;2023-07-30T08:43:17;2.53;;;2.00;;
7531;SDS011;3807;49.030;8.714;2023-07-30T08:45:43;2.85;;;2.00;;
7531;SDS011;3807;49.030;8.714;2023-07-30T08:48:08;2.60;;;1.80;;
7531;SDS011;3807;49.030;8.714;2023-07-30T08:50:34;2.53;;;1.90;;
7531;SDS011;3807;49.030;8.714;2023-07-30T08:53:00;3.23;;;1.77;;
7531;SDS011;3807;49.030;8.714;2023-07-30T08:55:27;3.15;;;1.98;;
7531;SDS011;3807;49.030;8.714;2023-07-30T08:57:55;4.17;;;1.90;;
7531;SDS011;3807;49.030;8.714;2023-07-30T09:00:23;4.40;;;2.30;;
7531;SDS011;3807;49.030;8.714;2023-07-30T09:02:58;3.77;;;2.00;;
7531;SDS011;3807;49.030;8.714;2023-07-30T09:05:25;2.00;;;1.73;;
7531;SDS011;3807;49.030;8.714;2023-07-30T09:07:53;4.47;;;1.62;;
7531;SDS011;3807;49.030;8.714;2023-07-30T09:10:18;2.92;;;1.90;;
7531;SDS011;3807;49.030;8.714;2023-07-30T09:12:44;2.87;;;2.03;;
7531;SDS011;3807;49.030;8.714;2023-07-30T09:15:09;2.33;;;2.12;;
7531;SDS011;3807;49.030;8.714;2023-07-30T09:17:35;2.95;;;1.73;;
7531;SDS011;3807;49.030;8.714;2023-07-30T09:20:03;3.33;;;1.80;;
7531;SDS011;3807;49.030;8.714;2023-07-30T09:22:30;5.28;;;1.95;;
7531;SDS011;3807;49.030;8.714;2023-07-30T09:25:05;3.78;;;1.73;;
7531;SDS011;3807;49.030;8.714;2023-07-30T09:27:31;2.60;;;1.90;;
7531;SDS011;3807;49.030;8.714;2023-07-30T09:29:57;2.80;;;1.73;;
7531;SDS011;3807;49.030;8.714;2023-07-30T09:32:25;2.83;;;1.70;;
7531;SDS011;3807;49.030;8.714;2023-07-30T09:34:52;2.17;;;1.98;;
7531;SDS011;3807;49.030;8.714;2023-07-30T09:37:18;7.45;;;2.37;;
7531;SDS011;3807;49.030;8.714;2023-07-30T09:39:43;2.40;;;2.00;;
7531;SDS011;3807;49.030;8.714;2023-07-30T09:42:09;2.47;;;1.80;;
7531;SDS011;3807;49.030;8.714;2023-07-30T09:44:35;3.03;;;2.00;;
7531;SDS011;3807;49.030;8.714;2023-07-30T09:47:03;3.10;;;2.30;;
7531;SDS011;3807;49.030;8.714;2023-07-30T09:49:30;4.28;;;2.00;;
7531;SDS011;3807;49.030;8.714;2023-07-30T09:51:57;3.75;;;2.17;;
7531;SDS011;3807;49.030;8.714;2023-07-30T09:54:23;2.22;;;1.80;;
7531;SDS011;3807;49.030;8.714;2023-07-30T09:56:48;2.33;;;1.90;;
7531;SDS011;3807;49.030;8.714;2023-07-30T09:59:14;6.07;;;2.15;;
7531;SDS011;3807;49.030;8.714;2023-07-30T10:01:43;7.10;;;1.80;;
7531;SDS011;3807;49.030;8.714;2023-07-30T10:04:10;6.53;;;1.80;;
7531;SDS011;3807;49.030;8.714;2023-07-30T10:06:38;3.25;;;1.80;;
7531;SDS011;3807;49.030;8.714;2023-07-30T10:09:07;2.60;;;2.03;;
7531;SDS011;3807;49.030;8.714;2023-07-30T10:11:35;3.50;;;2.12;;
7531;SDS011;3807;49.030;8.714;2023-07-30T10:14:02;2.33;;;1.75;;
7531;SDS011;3807;49.030;8.714;2023-07-30T10:16:28;2.65;;;1.80;;
7531;SDS011;3807;49.030;8.714;2023-07-30T10:18:58;3.03;;;1.80;;
7531;SDS011;3807;49.030;8.714;2023-07-30T10:21:24;2.83;;;1.90;;
7531;SDS011;3807;49.030;8.714;2023-07-30T10:24:02;5.05;;;2.08;;
7531;SDS011;3807;49.030;8.714;2023-07-30T10:26:30;3.65;;;2.03;;
7531;SDS011;3807;49.030;8.714;2023-07-30T10:31:39;2.15;;;1.67;;
7531;SDS011;3807;49.030;8.714;2023-07-30T10:34:10;4.07;;;2.05;;
7531;SDS011;3807;49.030;8.714;2023-07-30T10:41:37;3.05;;;1.62;;
7531;SDS011;3807;49.030;8.714;2023-07-30T10:44:02;3.33;;;1.62;;
7531;SDS011;3807;49.030;8.714;2023-07-30T10:46:28;1.83;;;1.62;;
7531;SDS011;3807;49.030;8.714;2023-07-30T10:48:53;4.43;;;1.90;;
7531;SDS011;3807;49.030;8.714;2023-07-30T10:51:19;2.75;;;1.67;;
7531;SDS011;3807;49.030;8.714;2023-07-30T10:53:46;2.33;;;1.50;;
7531;SDS011;3807;49.030;8.714;2023-07-30T10:56:12;2.22;;;1.33;;
7531;SDS011;3807;49.030;8.714;2023-07-30T10:58:40;2.30;;;1.50;;
7531;SDS011;3807;49.030;8.714;2023-07-30T11:01:08;4.90;;;1.55;;
7531;SDS011;3807;49.030;8.714;2023-07-30T11:03:34;1.33;;;1.23;;
7531;SDS011;3807;49.030;8.714;2023-07-30T11:06:01;1.37;;;1.10;;
7531;SDS011;3807;49.030;8.714;2023-07-30T11:08:37;2.95;;;1.35;;
7531;SDS011;3807;49.030;8.714;2023-07-30T11:11:05;3.33;;;0.90;;
7531;SDS011;3807;49.030;8.714;2023-07-30T11:13:39;2.17;;;1.30;;
7531;SDS011;3807;49.030;8.714;2023-07-30T11:16:09;1.48;;;0.93;;
7531;SDS011;3807;49.030;8.714;2023-07-30T11:18:35;6.00;;;1.12;;
7531;SDS011;3807;49.030;8.714;2023-07-30T11:21:05;1.35;;;1.10;;
7531;SDS011;3807;49.030;8.714;2023-07-30T11:23:32;4.55;;;1.20;;
7531;SDS011;3807;49.030;8.714;2023-07-30T11:25:57;2.33;;;1.20;;
7531;SDS011;3807;49.030;8.714;2023-07-30T11:31:08;2.28;;;1.33;;
7531;SDS011;3807;49.030;8.714;2023-07-30T11:33:38;2.97;;;1.30;;
7531;SDS011;3807;49.030;8.714;2023-07-30T11:36:06;3.65;;;1.20;;
7531;SDS011;3807;49.030;8.714;2023-07-30T11:38:34;0.80;;;0.70;;
7531;SDS011;3807;49.030;8.714;2023-07-30T11:41:00;1.87;;;1.33;;
7531;SDS011;3807;49.030;8.714;2023-07-30T11:43:27;1.40;;;1.15;;
7531;SDS011;3807;49.030;8.714;2023-07-30T11:48:42;1.35;;;0.90;;
7531;SDS011;3807;49.030;8.714;2023-07-30T11:51:25;6.03;;;1.58;;
7531;SDS011;3807;49.030;8.714;2023-07-30T11:53:52;1.75;;;1.00;;
7531;SDS011;3807;49.030;8.714;2023-07-30T11:56:32;1.48;;;0.85;;
7531;SDS011;3807;49.030;8.714;2023-07-30T11:59:02;0.82;;;0.70;;
7531;SDS011;3807;49.030;8.714;2023-07-30T12:01:31;3.80;;;1.30;;
7531;SDS011;3807;49.030;8.714;2023-07-30T12:03:59;2.55;;;0.90;;
7531;SDS011;3807;49.030;8.714;2023-07-30T12:09:14;1.02;;;0.90;;
7531;SDS011;3807;49.030;8.714;2023-07-30T12:11:50;3.37;;;1.10;;
7531;SDS011;3807;49.030;8.714;2023-07-30T12:14:17;5.00;;;1.75;;
7531;SDS011;3807;49.030;8.714;2023-07-30T12:16:43;1.85;;;0.70;;
7531;SDS011;3807;49.030;8.714;2023-07-30T12:19:09;1.85;;;1.08;;
7531;SDS011;3807;49.030;8.714;2023-07-30T12:21:34;1.27;;;1.08;;
7531;SDS011;3807;49.030;8.714;2023-07-30T12:23:59;3.55;;;1.00;;
7531;SDS011;3807;49.030;8.714;2023-07-30T12:26:25;2.15;;;1.30;;
7531;SDS011;3807;49.030;8.714;2023-07-30T12:28:50;4.65;;;1.20;;
7531;SDS011;3807;49.030;8.714;2023-07-30T12:31:15;3.10;;;1.40;;
7531;SDS011;3807;49.030;8.714;2023-07-30T12:33:41;2.90;;;0.90;;
7531;SDS011;3807;49.030;8.714;2023-07-30T12:36:07;2.35;;;1.12;;
7531;SDS011;3807;49.030;8.714;2023-07-30T12:38:32;3.00;;;1.23;;
7531;SDS011;3807;49.030;8.714;2023-07-30T12:40:59;3.72;;;0.90;;
7531;SDS011;3807;49.030;8.714;2023-07-30T12:43:24;1.37;;;0.82;;
7531;SDS011;3807;49.030;8.714;2023-07-30T12:45:50;1.85;;;1.00;;
7531;SDS011;3807;49.030;8.714;2023-07-30T12:48:15;2.58;;;1.23;;
7531;SDS011;3807;49.030;8.714;2023-07-30T12:50:40;6.40;;;1.87;;
7531;SDS011;3807;49.030;8.714;2023-07-30T12:53:06;1.55;;;1.08;;
7531;SDS011;3807;49.030;8.714;2023-07-30T12:55:31;2.65;;;1.10;;
7531;SDS011;3807;49.030;8.714;2023-07-30T12:57:56;3.10;;;1.20;;
7531;SDS011;3807;49.030;8.714;2023-07-30T13:00:22;4.22;;;1.25;;
7531;SDS011;3807;49.030;8.714;2023-07-30T13:02:47;3.45;;;0.95;;
7531;SDS011;3807;49.030;8.714;2023-07-30T13:05:12;3.08;;;1.30;;
7531;SDS011;3807;49.030;8.714;2023-07-30T13:07:40;2.28;;;0.90;;
7531;SDS011;3807;49.030;8.714;2023-07-30T13:10:06;3.22;;;1.23;;
7531;SDS011;3807;49.030;8.714;2023-07-30T13:12:32;2.90;;;1.58;;
7531;SDS011;3807;49.030;8.714;2023-07-30T13:14:58;2.47;;;1.20;;
7531;SDS011;3807;49.030;8.714;2023-07-30T13:17:24;3.15;;;1.45;;
7531;SDS011;3807;49.030;8.714;2023-07-30T13:19:50;4.07;;;1.40;;
7531;SDS011;3807;49.030;8.714;2023-07-30T13:22:15;4.30;;;1.60;;
7531;SDS011;3807;49.030;8.714;2023-07-30T13:24:40;2.97;;;1.23;;
7531;SDS011;3807;49.030;8.714;2023-07-30T13:27:06;3.67;;;1.40;;
7531;SDS011;3807;49.030;8.714;2023-07-30T13:29:31;2.65;;;1.27;;
7531;SDS011;3807;49.030;8.714;2023-07-30T13:31:56;1.60;;;1.30;;
7531;SDS011;3807;49.030;8.714;2023-07-30T13:34:22;3.62;;;1.40;;
7531;SDS011;3807;49.030;8.714;2023-07-30T13:36:47;2.50;;;1.30;;
7531;SDS011;3807;49.030;8.714;2023-07-30T13:39:12;3.08;;;1.77;;
7531;SDS011;3807;49.030;8.714;2023-07-30T13:41:38;2.92;;;1.50;;
7531;SDS011;3807;49.030;8.714;2023-07-30T13:44:03;2.60;;;1.30;;
7531;SDS011;3807;49.030;8.714;2023-07-30T13:46:28;4.07;;;1.35;;
7531;SDS011;3807;49.030;8.714;2023-07-30T13:48:54;3.78;;;0.98;;
7531;SDS011;3807;49.030;8.714;2023-07-30T13:51:19;2.42;;;1.17;;
7531;SDS011;3807;49.030;8.714;2023-07-30T13:53:44;2.60;;;1.55;;
7531;SDS011;3807;49.030;8.714;2023-07-30T13:56:10;3.25;;;1.40;;
7531;SDS011;3807;49.030;8.714;2023-07-30T13:58:35;2.97;;;1.35;;
7531;SDS011;3807;49.030;8.714;2023-07-30T14:01:00;2.45;;;1.15;;
7531;SDS011;3807;49.030;8.714;2023-07-30T14:03:26;5.35;;;1.33;;
7531;SDS011;3807;49.030;8.714;2023-07-30T14:05:51;2.42;;;1.23;;
7531;SDS011;3807;49.030;8.714;2023-07-30T14:08:16;1.85;;;1.10;;
7531;SDS011;3807;49.030;8.714;2023-07-30T14:10:42;1.55;;;1.05;;
7531;SDS011;3807;49.030;8.714;2023-07-30T14:13:07;1.62;;;1.10;;
7531;SDS011;3807;49.030;8.714;2023-07-30T14:15:32;3.90;;;1.33;;
7531;SDS011;3807;49.030;8.714;2023-07-30T14:17:58;3.75;;;1.15;;
7531;SDS011;3807;49.030;8.714;2023-07-30T14:20:23;2.42;;;0.98;;
7531;SDS011;3807;49.030;8.714;2023-07-30T14:22:48;1.27;;;1.02;;
7531;SDS011;3807;49.030;8.714;2023-07-30T14:25:14;2.55;;;1.10;;
7531;SDS011;3807;49.030;8.714;2023-07-30T14:27:40;4.18;;;1.48;;
7531;SDS011;3807;49.030;8.714;2023-07-30T14:30:05;1.62;;;1.20;;
7531;SDS011;3807;49.030;8.714;2023-07-30T14:32:31;1.50;;;0.90;;
7531;SDS011;3807;49.030;8.714;2023-07-30T14:34:57;2.08;;;1.20;;
7531;SDS011;3807;49.030;8.714;2023-07-30T14:37:22;2.42;;;1.02;;
7531;SDS011;3807;49.030;8.714;2023-07-30T14:39:47;3.78;;;0.93;;
7531;SDS011;3807;49.030;8.714;2023-07-30T14:42:13;2.58;;;1.17;;
7531;SDS011;3807;49.030;8.714;2023-07-30T14:44:38;4.43;;;1.08;;
7531;SDS011;3807;49.030;8.714;2023-07-30T14:47:04;1.20;;;0.90;;
7531;SDS011;3807;49.030;8.714;2023-07-30T14:49:30;5.47;;;1.75;;
7531;SDS011;3807;49.030;8.714;2023-07-30T14:51:55;5.57;;;1.23;;
7531;SDS011;3807;49.030;8.714;2023-07-30T14:54:21;2.35;;;1.10;;
7531;SDS011;3807;49.030;8.714;2023-07-30T14:56:47;2.10;;;1.20;;
7531;SDS011;3807;49.030;8.714;2023-07-30T14:59:12;3.03;;;1.35;;
7531;SDS011;3807;49.030;8.714;2023-07-30T15:01:37;3.92;;;1.10;;
7531;SDS011;3807;49.030;8.714;2023-07-30T15:04:03;2.00;;;1.00;;
7531;SDS011;3807;49.030;8.714;2023-07-30T15:06:29;5.20;;;1.20;;
7531;SDS011;3807;49.030;8.714;2023-07-30T15:08:55;5.00;;;1.23;;
7531;SDS011;3807;49.030;8.714;2023-07-30T15:11:20;1.58;;;1.00;;
7531;SDS011;3807;49.030;8.714;2023-07-30T15:13:46;2.80;;;0.82;;
7531;SDS011;3807;49.030;8.714;2023-07-30T15:16:11;4.35;;;1.20;;
7531;SDS011;3807;49.030;8.714;2023-07-30T15:18:37;2.60;;;1.20;;
7531;SDS011;3807;49.030;8.714;2023-07-30T15:21:02;4.85;;;1.23;;
7531;SDS011;3807;49.030;8.714;2023-07-30T15:23:27;2.65;;;1.10;;